createdAt,value
2023-03-17T00:01:43.872Z,97125.41
2023-03-17T00:04:12.610Z,97121.44
2023-03-17T00:06:41.734Z,97114.69
2023-03-17T00:09:12.816Z,97126.91
2023-03-17T00:11:40.805Z,97121.03
2023-03-17T00:14:08.381Z,97116.94
2023-03-17T00:16:39.657Z,97129.72
2023-03-17T00:19:12.824Z,97140.19
2023-03-17T00:21:41.948Z,97128.00
2023-03-17T00:24:14.722Z,97116.75
2023-03-17T00:26:43.040Z,97125.13
2023-03-17T00:29:10.755Z,97135.84
2023-03-17T00:31:39.237Z,97133.13
2023-03-17T00:34:07.255Z,97129.47
2023-03-17T00:36:35.931Z,97131.22
2023-03-17T00:41:40.261Z,97126.16
2023-03-17T00:44:07.838Z,97137.53
2023-03-17T00:46:37.015Z,97137.19
2023-03-17T00:49:15.045Z,97132.06
2023-03-17T00:51:43.472Z,97129.19
2023-03-17T00:54:13.526Z,97132.38
2023-03-17T00:56:42.253Z,97122.72
2023-03-17T00:59:20.302Z,97118.84
2023-03-17T01:01:48.258Z,97131.53
2023-03-17T01:04:16.236Z,97127.06
2023-03-17T01:06:44.030Z,97131.97
2023-03-17T01:09:15.336Z,97132.69
2023-03-17T01:11:43.097Z,97130.13
2023-03-17T01:14:12.939Z,97126.22
2023-03-17T01:16:41.150Z,97125.53
2023-03-17T01:19:11.707Z,97121.91
2023-03-17T01:21:39.508Z,97118.88
2023-03-17T01:24:07.445Z,97106.44
2023-03-17T01:26:37.042Z,97103.94
2023-03-17T01:29:05.332Z,97101.91
2023-03-17T01:31:33.122Z,97095.78
2023-03-17T01:34:00.798Z,97098.59
2023-03-17T01:36:28.563Z,97090.97
2023-03-17T01:38:56.200Z,97091.00
2023-03-17T01:41:24.024Z,97089.53
2023-03-17T01:43:53.017Z,97088.31
2023-03-17T01:46:25.284Z,97084.44
2023-03-17T01:49:00.843Z,97083.34
2023-03-17T01:51:36.507Z,97079.59
2023-03-17T01:54:08.342Z,97074.44
2023-03-17T01:56:40.178Z,97068.31
2023-03-17T01:59:18.872Z,97068.72
2023-03-17T02:01:52.491Z,97057.38
2023-03-17T02:04:20.876Z,97061.03
2023-03-17T02:06:57.973Z,97049.31
2023-03-17T02:09:28.341Z,97047.28
2023-03-17T02:11:59.920Z,97050.69
2023-03-17T02:14:29.293Z,97045.28
2023-03-17T02:16:56.908Z,97056.44
2023-03-17T02:19:24.729Z,97043.53
2023-03-17T02:21:56.173Z,97046.91
2023-03-17T02:24:31.745Z,97030.06
2023-03-17T02:27:05.159Z,97026.06
2023-03-17T02:29:35.716Z,97033.19
2023-03-17T02:32:04.199Z,97037.16
2023-03-17T02:34:31.928Z,97029.94
2023-03-17T02:37:00.993Z,97028.25
2023-03-17T02:39:28.615Z,97025.97
2023-03-17T02:41:56.290Z,97020.16
2023-03-17T02:44:23.868Z,97030.53
2023-03-17T02:46:51.455Z,97025.69
2023-03-17T02:49:20.115Z,97026.38
2023-03-17T02:51:47.740Z,97037.31
2023-03-17T02:54:16.659Z,97032.69
2023-03-17T02:56:44.531Z,97024.66
2023-03-17T02:59:12.431Z,97021.97
2023-03-17T03:01:40.116Z,97016.88
2023-03-17T03:04:08.415Z,97020.69
2023-03-17T03:06:36.413Z,97029.13
2023-03-17T03:09:03.994Z,97025.16
2023-03-17T03:11:32.937Z,97024.84
2023-03-17T03:14:00.620Z,97026.03
2023-03-17T03:16:28.170Z,97023.91
2023-03-17T03:18:55.782Z,97018.81
2023-03-17T03:21:23.382Z,97012.50
2023-03-17T03:23:51.070Z,97017.44
2023-03-17T03:26:18.754Z,97020.97
2023-03-17T03:28:49.183Z,97017.13
2023-03-17T03:31:17.130Z,97026.50
2023-03-17T03:33:44.995Z,97021.06
2023-03-17T03:36:12.666Z,97036.38
2023-03-17T03:38:40.723Z,97031.44
2023-03-17T03:41:08.675Z,97031.56
2023-03-17T03:43:36.900Z,97034.66
2023-03-17T03:46:05.942Z,97029.69
2023-03-17T03:48:33.539Z,97025.69
2023-03-17T03:51:02.621Z,97033.00
2023-03-17T03:53:30.830Z,97035.44
2023-03-17T03:55:58.457Z,97038.19
2023-03-17T03:58:26.078Z,97040.31
2023-03-17T04:00:53.905Z,97042.44
2023-03-17T04:03:23.048Z,97037.91
2023-03-17T04:05:50.714Z,97039.53
2023-03-17T04:08:18.403Z,97044.06
2023-03-17T04:10:46.352Z,97039.84
2023-03-17T04:13:14.080Z,97042.94
2023-03-17T04:15:41.824Z,97030.16
2023-03-17T04:18:09.512Z,97041.06
2023-03-17T04:20:38.529Z,97038.56
2023-03-17T04:23:06.338Z,97040.38
2023-03-17T04:25:33.899Z,97044.59
2023-03-17T04:28:01.556Z,97030.78
2023-03-17T04:30:29.468Z,97021.31
2023-03-17T04:32:57.235Z,97022.22
2023-03-17T04:35:24.828Z,97025.41
2023-03-17T04:37:53.823Z,97021.44
2023-03-17T04:40:21.554Z,97032.84
2023-03-17T04:42:49.327Z,97019.03
2023-03-17T04:45:17.171Z,97023.28
2023-03-17T04:47:45.195Z,97018.94
2023-03-17T04:50:14.165Z,97025.25
2023-03-17T04:52:42.118Z,97038.31
2023-03-17T04:55:11.307Z,97025.53
2023-03-17T04:57:39.029Z,97024.28
2023-03-17T05:00:08.832Z,97034.47
2023-03-17T05:02:36.479Z,97039.88
2023-03-17T05:05:04.637Z,97032.19
2023-03-17T05:07:34.067Z,97026.84
2023-03-17T05:10:01.784Z,97028.28
2023-03-17T05:12:30.936Z,97039.91
2023-03-17T05:14:58.688Z,97036.63
2023-03-17T05:17:26.388Z,97045.69
2023-03-17T05:19:53.925Z,97055.38
2023-03-17T05:22:21.440Z,97058.41
2023-03-17T05:24:48.961Z,97057.97
2023-03-17T05:27:16.564Z,97063.31
2023-03-17T05:29:45.639Z,97052.94
2023-03-17T05:32:13.373Z,97057.31
2023-03-17T05:34:40.949Z,97055.94
2023-03-17T05:37:08.658Z,97061.09
2023-03-17T05:39:36.456Z,97056.47
2023-03-17T05:42:04.478Z,97054.00
2023-03-17T05:44:32.333Z,97053.84
2023-03-17T05:47:01.346Z,97056.69
2023-03-17T05:49:29.193Z,97053.66
2023-03-17T05:51:56.889Z,97052.59
2023-03-17T05:54:24.652Z,97056.50
2023-03-17T05:56:52.285Z,97048.16
2023-03-17T05:59:19.840Z,97044.72
2023-03-17T06:01:47.409Z,97037.66
2023-03-17T06:04:16.397Z,97039.66
2023-03-17T06:06:44.085Z,97037.63
2023-03-17T06:09:11.638Z,97035.88
2023-03-17T06:11:39.216Z,97039.22
2023-03-17T06:14:06.786Z,97037.25
2023-03-17T06:16:34.376Z,97043.06
2023-03-17T06:19:01.958Z,97050.53
2023-03-17T06:21:30.823Z,97051.81
2023-03-17T06:23:58.416Z,97051.47
2023-03-17T06:26:26.395Z,97051.09
2023-03-17T06:28:54.158Z,97059.50
2023-03-17T06:31:21.938Z,97057.56
2023-03-17T06:33:49.996Z,97064.03
2023-03-17T06:36:17.865Z,97064.41
2023-03-17T06:38:46.922Z,97061.31
2023-03-17T06:41:14.663Z,97067.25
2023-03-17T06:43:42.310Z,97073.19
2023-03-17T06:46:10.087Z,97067.72
2023-03-17T06:48:37.759Z,97054.72
2023-03-17T06:51:06.089Z,97050.69
2023-03-17T06:53:33.749Z,97051.88
2023-03-17T06:56:04.527Z,97056.41
2023-03-17T06:58:32.218Z,97071.22
2023-03-17T07:00:59.838Z,97069.84
2023-03-17T07:03:27.867Z,97070.34
2023-03-17T07:05:55.513Z,97061.44
2023-03-17T07:08:23.299Z,97061.50
2023-03-17T07:10:50.951Z,97063.06
2023-03-17T07:13:19.890Z,97062.56
2023-03-17T07:15:48.312Z,97066.56
2023-03-17T07:18:16.178Z,97065.56
2023-03-17T07:20:43.711Z,97066.53
2023-03-17T07:23:15.784Z,97078.25
2023-03-17T07:25:43.301Z,97073.97
2023-03-17T07:28:11.151Z,97070.16
2023-03-17T07:30:40.173Z,97070.03
2023-03-17T07:33:07.848Z,97070.94
2023-03-17T07:35:35.502Z,97069.84
2023-03-17T07:38:03.276Z,97072.97
2023-03-17T07:40:33.570Z,97060.81
2023-03-17T07:43:02.861Z,97057.50
2023-03-17T07:45:31.184Z,97065.78
2023-03-17T07:48:00.335Z,97066.72
2023-03-17T07:50:28.155Z,97070.22
2023-03-17T07:52:55.714Z,97066.47
2023-03-17T07:55:23.376Z,97071.25
2023-03-17T07:57:51.239Z,97073.03
2023-03-17T08:00:20.869Z,97066.81
2023-03-17T08:03:03.104Z,97065.91
2023-03-17T08:05:37.403Z,97057.38
2023-03-17T08:08:05.434Z,97061.56
2023-03-17T08:10:33.741Z,97064.41
2023-03-17T08:13:01.764Z,97055.88
2023-03-17T08:15:29.467Z,97067.25
2023-03-17T08:17:57.050Z,97074.47
2023-03-17T08:20:24.681Z,97073.03
2023-03-17T08:22:53.631Z,97067.22
2023-03-17T08:25:21.537Z,97073.53
2023-03-17T08:27:49.233Z,97072.66
2023-03-17T08:30:17.540Z,97062.94
2023-03-17T08:32:45.184Z,97070.78
2023-03-17T08:35:13.586Z,97059.28
2023-03-17T08:37:41.302Z,97054.00
2023-03-17T08:40:12.260Z,97052.59
2023-03-17T08:42:40.090Z,97056.94
2023-03-17T08:45:08.255Z,97044.84
2023-03-17T08:47:36.671Z,97041.94
2023-03-17T08:50:09.773Z,97046.44
2023-03-17T08:52:37.409Z,97039.44
2023-03-17T08:55:05.811Z,97035.97
2023-03-17T08:57:34.947Z,97040.13
2023-03-17T09:00:03.464Z,97033.56
2023-03-17T09:02:31.129Z,97031.34
2023-03-17T09:04:59.740Z,97039.75
2023-03-17T09:07:27.282Z,97043.59
2023-03-17T09:09:54.862Z,97048.16
2023-03-17T09:12:22.763Z,97039.41
2023-03-17T09:14:53.981Z,97046.97
2023-03-17T09:17:22.016Z,97057.72
2023-03-17T09:19:49.860Z,97055.06
2023-03-17T09:22:18.547Z,97048.13
2023-03-17T09:24:47.576Z,97054.19
2023-03-17T09:27:15.135Z,97041.47
2023-03-17T09:29:42.843Z,97038.25
2023-03-17T09:32:11.991Z,97043.59
2023-03-17T09:34:39.717Z,97041.28
2023-03-17T09:37:07.412Z,97042.84
2023-03-17T09:39:35.276Z,97037.47
2023-03-17T09:42:20.916Z,97033.13
2023-03-17T09:45:06.376Z,97033.25
2023-03-17T09:47:56.114Z,97039.00
2023-03-17T09:50:27.862Z,97034.19
2023-03-17T09:52:57.847Z,97035.75
2023-03-17T09:55:28.912Z,97030.56
2023-03-17T09:57:58.462Z,97031.44
2023-03-17T10:00:28.264Z,97036.19
2023-03-17T10:02:58.618Z,97043.41
2023-03-17T10:05:28.232Z,97039.66
2023-03-17T10:08:06.331Z,97035.41
2023-03-17T10:10:45.114Z,97048.50
2023-03-17T10:13:28.366Z,97042.06
2023-03-17T10:16:03.127Z,97033.88
2023-03-17T10:18:43.750Z,97030.44
2023-03-17T10:21:18.716Z,97014.31
2023-03-17T10:23:46.441Z,97015.81
2023-03-17T10:26:29.203Z,97018.00
2023-03-17T10:28:56.799Z,97018.25
2023-03-17T10:31:29.254Z,97010.88
2023-03-17T10:34:12.104Z,97006.19
2023-03-17T10:36:43.532Z,97008.25
2023-03-17T10:39:14.840Z,97004.69
2023-03-17T10:41:53.898Z,97006.91
2023-03-17T10:44:29.638Z,97006.16
2023-03-17T10:46:57.353Z,97014.50
2023-03-17T10:49:26.300Z,97008.03
2023-03-17T10:51:54.456Z,97005.94
2023-03-17T10:54:25.462Z,97016.31
2023-03-17T10:57:01.448Z,97015.63
2023-03-17T11:02:17.769Z,97018.31
2023-03-17T11:04:46.743Z,97012.84
2023-03-17T11:07:17.947Z,97000.91
2023-03-17T11:09:49.285Z,97012.19
2023-03-17T11:12:24.582Z,97004.06
2023-03-17T11:14:57.589Z,97008.78
2023-03-17T11:17:38.308Z,96995.44
2023-03-17T11:20:31.128Z,96998.03
2023-03-17T11:23:06.699Z,96983.63
2023-03-17T11:25:41.972Z,96979.84
2023-03-17T11:28:19.749Z,96984.75
2023-03-17T11:31:05.029Z,96983.00
2023-03-17T11:33:39.317Z,96974.56
2023-03-17T11:36:24.279Z,96984.03
2023-03-17T11:39:00.462Z,96983.00
2023-03-17T11:41:45.916Z,96983.09
2023-03-17T11:44:51.345Z,96986.00
2023-03-17T11:47:34.773Z,96990.34
2023-03-17T11:50:16.728Z,96982.97
2023-03-17T11:53:01.145Z,96981.63
2023-03-17T11:55:41.583Z,96970.63
2023-03-17T11:58:22.443Z,96971.63
2023-03-17T12:00:55.778Z,96967.06
2023-03-17T12:03:31.912Z,96966.50
2023-03-17T12:06:04.980Z,96971.53
2023-03-17T12:08:41.611Z,96977.50
2023-03-17T12:11:14.679Z,96976.53
2023-03-17T12:13:48.050Z,96976.78
2023-03-17T12:16:23.072Z,96968.44
2023-03-17T12:19:01.510Z,96968.25
2023-03-17T12:21:36.527Z,96964.31
2023-03-17T12:24:14.943Z,96951.28
2023-03-17T12:26:55.516Z,96963.34
2023-03-17T12:29:32.086Z,96953.09
2023-03-17T12:32:06.785Z,96949.94
2023-03-17T12:34:45.213Z,96950.69
2023-03-17T12:37:12.856Z,96941.91
2023-03-17T12:39:55.275Z,96944.72
2023-03-17T12:42:37.127Z,96937.66
2023-03-17T12:45:35.502Z,96927.75
2023-03-17T12:48:36.925Z,96923.78
2023-03-17T12:51:40.548Z,96921.63
2023-03-17T12:54:14.087Z,96917.41
2023-03-17T12:56:48.921Z,96901.28
2023-03-17T12:59:21.727Z,96911.00
2023-03-17T13:01:56.663Z,96909.09
2023-03-17T13:04:27.301Z,96911.63
2023-03-17T13:07:04.226Z,96901.63
2023-03-17T13:09:43.573Z,96903.56
2023-03-17T13:13:02.696Z,96899.88
2023-03-17T13:15:51.452Z,96895.38
2023-03-17T13:19:05.670Z,96893.78
2023-03-17T13:21:36.292Z,96892.97
2023-03-17T13:24:42.589Z,96878.78
2023-03-17T13:27:12.503Z,96885.00
2023-03-17T13:29:44.349Z,96874.13
2023-03-17T13:32:36.075Z,96865.41
2023-03-17T13:35:37.207Z,96863.47
2023-03-17T13:38:32.711Z,96875.06
2023-03-17T13:41:27.077Z,96861.81
2023-03-17T13:44:24.134Z,96861.19
2023-03-17T13:46:52.302Z,96849.41
2023-03-17T13:49:28.854Z,96850.59
2023-03-17T13:52:03.205Z,96850.59
2023-03-17T13:54:34.222Z,96839.03
2023-03-17T13:57:25.474Z,96848.63
2023-03-17T14:00:20.281Z,96837.53
2023-03-17T14:02:51.871Z,96851.22
2023-03-17T14:05:27.005Z,96830.19
2023-03-17T14:07:59.387Z,96840.66
2023-03-17T14:10:31.036Z,96835.66
2023-03-17T14:13:13.211Z,96829.59
2023-03-17T14:15:50.523Z,96843.25
2023-03-17T14:18:20.346Z,96832.28
2023-03-17T14:20:57.653Z,96825.03
2023-03-17T14:23:25.965Z,96833.03
2023-03-17T14:25:57.383Z,96832.66
2023-03-17T14:28:28.339Z,96816.25
2023-03-17T14:31:00.003Z,96811.25
2023-03-17T14:33:29.481Z,96809.66
2023-03-17T14:36:00.406Z,96817.72
2023-03-17T14:38:30.484Z,96816.22
2023-03-17T14:41:05.786Z,96815.47
2023-03-17T14:43:36.434Z,96811.22
2023-03-17T14:46:05.932Z,96801.66
2023-03-17T14:48:36.702Z,96799.38
2023-03-17T14:51:09.714Z,96799.69
2023-03-17T14:53:41.427Z,96784.97
2023-03-17T14:56:09.917Z,96792.97
2023-03-17T14:58:41.746Z,96793.59
2023-03-17T15:01:16.584Z,96787.94
2023-03-17T15:03:55.317Z,96773.84
2023-03-17T15:06:27.581Z,96774.69
2023-03-17T15:08:58.211Z,96775.50
2023-03-17T15:11:35.973Z,96776.97
2023-03-17T15:14:12.412Z,96766.41
2023-03-17T15:16:47.389Z,96760.22
2023-03-17T15:19:22.806Z,96773.34
2023-03-17T15:21:52.065Z,96764.59
2023-03-17T15:24:25.201Z,96754.72
2023-03-17T15:26:59.848Z,96745.38
2023-03-17T15:29:28.452Z,96740.38
2023-03-17T15:32:03.079Z,96741.84
2023-03-17T15:34:30.995Z,96733.69
2023-03-17T15:37:00.165Z,96739.81
2023-03-17T15:39:27.751Z,96736.19
2023-03-17T15:41:55.477Z,96727.66
2023-03-17T15:44:23.081Z,96734.75
2023-03-17T15:46:50.987Z,96728.03
2023-03-17T15:49:18.896Z,96716.88
2023-03-17T15:51:46.516Z,96722.91
2023-03-17T15:54:15.535Z,96727.41
2023-03-17T15:56:43.084Z,96723.34
2023-03-17T15:59:10.974Z,96725.50
2023-03-17T16:01:39.416Z,96732.81
2023-03-17T16:04:08.364Z,96728.25
2023-03-17T16:06:36.064Z,96726.78
2023-03-17T16:09:05.741Z,96729.81
2023-03-17T16:11:34.939Z,96733.03
2023-03-17T16:14:03.607Z,96727.38
2023-03-17T16:16:36.568Z,96722.16
2023-03-17T16:19:05.672Z,96716.28
2023-03-17T16:21:33.351Z,96712.03
2023-03-17T16:24:01.005Z,96720.34
2023-03-17T16:26:28.994Z,96725.66
2023-03-17T16:28:57.970Z,96721.19
2023-03-17T16:31:28.157Z,96723.09
2023-03-17T16:33:56.858Z,96721.81
2023-03-17T16:36:25.558Z,96728.16
2023-03-17T16:38:53.283Z,96733.03
2023-03-17T16:41:23.581Z,96727.25
2023-03-17T16:43:54.001Z,96724.44
2023-03-17T16:46:23.650Z,96710.69
2023-03-17T16:48:51.691Z,96707.41
2023-03-17T16:51:22.117Z,96712.66
2023-03-17T16:53:50.151Z,96712.25
2023-03-17T16:56:21.752Z,96716.41
2023-03-17T16:58:49.543Z,96717.69
2023-03-17T17:01:21.048Z,96722.94
2023-03-17T17:03:50.028Z,96709.81
2023-03-17T17:06:19.562Z,96724.19
2023-03-17T17:08:49.609Z,96729.31
2023-03-17T17:11:19.482Z,96730.22
2023-03-17T17:13:49.630Z,96730.13
2023-03-17T17:16:22.914Z,96742.38
2023-03-17T17:18:51.965Z,96749.03
2023-03-17T17:21:19.583Z,96751.53
2023-03-17T17:23:50.554Z,96744.38
2023-03-17T17:26:20.773Z,96758.50
2023-03-17T17:28:48.901Z,96757.97
2023-03-17T17:31:16.693Z,96761.97
2023-03-17T17:33:44.600Z,96771.41
2023-03-17T17:36:16.359Z,96766.75
2023-03-17T17:38:44.348Z,96771.63
2023-03-17T17:41:14.041Z,96767.69
2023-03-17T17:43:41.669Z,96774.28
2023-03-17T17:46:17.277Z,96780.41
2023-03-17T17:48:45.362Z,96773.50
2023-03-17T17:51:15.029Z,96774.97
2023-03-17T17:53:45.521Z,96774.13
2023-03-17T17:56:14.965Z,96772.88
2023-03-17T17:58:45.334Z,96778.19
2023-03-17T18:01:13.679Z,96777.41
2023-03-17T18:03:41.608Z,96781.22
2023-03-17T18:06:10.154Z,96783.91
2023-03-17T18:08:40.360Z,96779.22
2023-03-17T18:11:08.420Z,96778.38
2023-03-17T18:13:36.104Z,96785.97
2023-03-17T18:16:05.319Z,96782.69
2023-03-17T18:18:32.842Z,96791.22
2023-03-17T18:21:00.451Z,96785.56
2023-03-17T18:23:28.378Z,96791.19
2023-03-17T18:26:01.134Z,96788.66
2023-03-17T18:28:29.122Z,96799.41
2023-03-17T18:31:04.837Z,96800.84
2023-03-17T18:33:33.224Z,96811.31
2023-03-17T18:36:02.409Z,96808.75
2023-03-17T18:38:31.221Z,96812.25
2023-03-17T18:41:00.728Z,96813.63
2023-03-17T18:43:28.552Z,96829.91
2023-03-17T18:45:56.585Z,96824.50
2023-03-17T18:48:24.543Z,96834.47
2023-03-17T18:50:52.282Z,96834.91
2023-03-17T18:53:19.962Z,96834.72
2023-03-17T18:55:50.081Z,96835.41
2023-03-17T18:58:20.762Z,96840.16
2023-03-17T19:00:49.510Z,96844.47
2023-03-17T19:03:17.402Z,96848.53
2023-03-17T19:05:44.976Z,96844.13
2023-03-17T19:08:12.495Z,96842.47
2023-03-17T19:10:43.252Z,96855.81
2023-03-17T19:13:10.894Z,96851.09
2023-03-17T19:15:42.038Z,96851.09
2023-03-17T19:18:09.992Z,96857.16
2023-03-17T19:20:37.566Z,96858.53
2023-03-17T19:23:06.194Z,96857.66
2023-03-17T19:25:34.250Z,96858.41
2023-03-17T19:28:02.021Z,96866.81
2023-03-17T19:30:29.843Z,96870.00
2023-03-17T19:32:59.081Z,96871.50
2023-03-17T19:35:26.771Z,96862.84
2023-03-17T19:37:55.728Z,96876.47
2023-03-17T19:40:23.620Z,96874.84
2023-03-17T19:42:51.226Z,96876.78
2023-03-17T19:45:18.753Z,96881.69
2023-03-17T19:47:46.349Z,96880.06
2023-03-17T19:50:15.611Z,96883.63
2023-03-17T19:52:43.157Z,96883.78
2023-03-17T19:55:11.689Z,96889.47
2023-03-17T19:57:39.281Z,96885.63
2023-03-17T20:00:09.105Z,96890.03
2023-03-17T20:02:36.735Z,96895.38
2023-03-17T20:05:05.118Z,96920.53
2023-03-17T20:07:34.865Z,96900.19
2023-03-17T20:10:03.570Z,96915.25
2023-03-17T20:12:31.157Z,96912.75
2023-03-17T20:14:58.722Z,96908.59
2023-03-17T20:17:27.017Z,96910.69
2023-03-17T20:19:54.650Z,96916.38
2023-03-17T20:22:22.397Z,96918.59
2023-03-17T20:24:51.277Z,96931.66
2023-03-17T20:27:21.598Z,96913.09
2023-03-17T20:29:49.184Z,96919.72
2023-03-17T20:32:18.383Z,96920.03
2023-03-17T20:34:45.911Z,96932.97
2023-03-17T20:37:13.481Z,96930.63
2023-03-17T20:39:41.116Z,96920.97
2023-03-17T20:42:15.247Z,96917.19
2023-03-17T20:44:43.189Z,96929.69
2023-03-17T20:47:13.200Z,96926.75
2023-03-17T20:49:40.818Z,96934.44
2023-03-17T20:52:12.877Z,96943.47
2023-03-17T20:54:40.594Z,96950.75
2023-03-17T20:57:12.903Z,96949.69
2023-03-17T20:59:40.773Z,96952.91
2023-03-17T21:02:14.457Z,96959.78
2023-03-17T21:04:42.168Z,96957.88
2023-03-17T21:07:09.801Z,96960.84
2023-03-17T21:09:37.431Z,96963.50
2023-03-17T21:12:05.152Z,96974.72
2023-03-17T21:14:34.112Z,96975.00
2023-03-17T21:17:01.766Z,96983.16
2023-03-17T21:19:32.354Z,96977.72
2023-03-17T21:22:00.098Z,96984.66
2023-03-17T21:24:30.571Z,96976.56
2023-03-17T21:27:00.718Z,96968.94
2023-03-17T21:29:30.257Z,96973.47
2023-03-17T21:31:59.719Z,96974.22
2023-03-17T21:34:29.030Z,96977.03
2023-03-17T21:36:57.569Z,96983.53
2023-03-17T21:39:29.596Z,96981.28
2023-03-17T21:41:57.501Z,96977.44
2023-03-17T21:44:25.170Z,96983.16
2023-03-17T21:46:53.781Z,96987.38
2023-03-17T21:49:23.232Z,96997.31
2023-03-17T21:51:51.752Z,96993.88
2023-03-17T21:54:19.402Z,97000.72
2023-03-17T21:56:47.273Z,96996.50
2023-03-17T21:59:15.320Z,97006.09
2023-03-17T22:01:43.092Z,97006.13
2023-03-17T22:04:11.908Z,97013.41
2023-03-17T22:06:41.018Z,97015.56
2023-03-17T22:09:09.413Z,97019.44
2023-03-17T22:11:37.311Z,97024.44
2023-03-17T22:14:04.898Z,97013.75
2023-03-17T22:16:32.673Z,97014.16
2023-03-17T22:19:00.359Z,97011.09
2023-03-17T22:21:27.994Z,97016.81
2023-03-17T22:23:57.122Z,97015.66
2023-03-17T22:26:24.690Z,97011.84
2023-03-17T22:28:52.404Z,97030.22
2023-03-17T22:31:22.146Z,97019.88
2023-03-17T22:33:53.427Z,97021.41
2023-03-17T22:36:21.978Z,97013.38
2023-03-17T22:38:49.760Z,97014.13
2023-03-17T22:41:22.161Z,97015.63
2023-03-17T22:43:50.715Z,97017.94
2023-03-17T22:46:19.406Z,97021.00
2023-03-17T22:48:47.847Z,97017.19
2023-03-17T22:51:18.216Z,97021.75
2023-03-17T22:53:46.766Z,97030.16
2023-03-17T22:56:16.439Z,97034.38
2023-03-17T22:58:46.027Z,97023.69
2023-03-17T23:01:18.175Z,97035.56
2023-03-17T23:03:46.109Z,97029.03
2023-03-17T23:06:15.073Z,97026.34
2023-03-17T23:08:44.074Z,97033.66
2023-03-17T23:11:14.862Z,97040.16
2023-03-17T23:13:43.223Z,97041.66
2023-03-17T23:16:13.060Z,97049.72
2023-03-17T23:18:41.290Z,97043.97
2023-03-17T23:21:09.560Z,97043.19
2023-03-17T23:23:38.415Z,97042.34
2023-03-17T23:26:06.154Z,97043.94
2023-03-17T23:28:33.786Z,97048.91
2023-03-17T23:31:02.896Z,97039.75
2023-03-17T23:33:31.895Z,97053.91
2023-03-17T23:35:59.538Z,97053.09
2023-03-17T23:38:27.219Z,97059.22
2023-03-17T23:40:56.823Z,97061.28
2023-03-17T23:43:24.534Z,97062.16
2023-03-17T23:45:53.335Z,97059.81
2023-03-17T23:48:21.637Z,97065.22
2023-03-17T23:50:53.140Z,97060.50
2023-03-17T23:53:23.229Z,97065.47
2023-03-17T23:55:52.234Z,97064.06
2023-03-17T23:58:20.706Z,97068.41
